sensor_id;sensor_type;location;lat;lon;timestamp;P1;durP1;ratioP1;P2;durP2;ratioP2
9675;SDS011;4876;42.656;23.292;2023-06-19T00:00:42;6.10;;;4.10;;
9675;SDS011;4876;42.656;23.292;2023-06-19T00:03:09;4.83;;;4.43;;
9675;SDS011;4876;42.656;23.292;2023-06-19T00:05:36;4.67;;;4.20;;
9675;SDS011;4876;42.656;23.292;2023-06-19T00:08:03;5.97;;;4.63;;
9675;SDS011;4876;42.656;23.292;2023-06-19T00:10:33;4.83;;;4.10;;
9675;SDS011;4876;42.656;23.292;2023-06-19T00:13:00;5.40;;;3.97;;
9675;SDS011;4876;42.656;23.292;2023-06-19T00:15:26;4.50;;;4.10;;
9675;SDS011;4876;42.656;23.292;2023-06-19T00:17:54;10.77;;;5.03;;
9675;SDS011;4876;42.656;23.292;2023-06-19T00:20:22;7.03;;;4.53;;
9675;SDS011;4876;42.656;23.292;2023-06-19T00:22:49;4.93;;;4.10;;
9675;SDS011;4876;42.656;23.292;2023-06-19T00:25:17;8.60;;;4.57;;
9675;SDS011;4876;42.656;23.292;2023-06-19T00:27:45;6.40;;;4.70;;
9675;SDS011;4876;42.656;23.292;2023-06-19T00:30:12;6.40;;;4.33;;
9675;SDS011;4876;42.656;23.292;2023-06-19T00:32:39;4.80;;;4.37;;
9675;SDS011;4876;42.656;23.292;2023-06-19T00:35:12;7.90;;;4.13;;
9675;SDS011;4876;42.656;23.292;2023-06-19T00:37:40;5.63;;;4.33;;
9675;SDS011;4876;42.656;23.292;2023-06-19T00:40:10;4.63;;;4.20;;
9675;SDS011;4876;42.656;23.292;2023-06-19T00:42:41;4.87;;;4.40;;
9675;SDS011;4876;42.656;23.292;2023-06-19T00:45:10;4.40;;;4.00;;
9675;SDS011;4876;42.656;23.292;2023-06-19T00:47:36;6.07;;;4.70;;
9675;SDS011;4876;42.656;23.292;2023-06-19T00:50:04;9.33;;;4.30;;
9675;SDS011;4876;42.656;23.292;2023-06-19T00:52:31;8.07;;;4.50;;
9675;SDS011;4876;42.656;23.292;2023-06-19T00:54:58;5.07;;;3.97;;
9675;SDS011;4876;42.656;23.292;2023-06-19T00:57:25;7.77;;;4.77;;
9675;SDS011;4876;42.656;23.292;2023-06-19T00:59:52;6.03;;;4.33;;
9675;SDS011;4876;42.656;23.292;2023-06-19T01:02:21;6.13;;;4.47;;
9675;SDS011;4876;42.656;23.292;2023-06-19T01:04:49;6.77;;;4.63;;
9675;SDS011;4876;42.656;23.292;2023-06-19T01:07:18;5.77;;;4.53;;
9675;SDS011;4876;42.656;23.292;2023-06-19T01:09:51;9.60;;;4.40;;
9675;SDS011;4876;42.656;23.292;2023-06-19T01:12:22;6.50;;;4.70;;
9675;SDS011;4876;42.656;23.292;2023-06-19T01:14:58;6.43;;;4.70;;
9675;SDS011;4876;42.656;23.292;2023-06-19T01:17:27;6.90;;;4.20;;
9675;SDS011;4876;42.656;23.292;2023-06-19T01:19:55;4.70;;;4.30;;
9675;SDS011;4876;42.656;23.292;2023-06-19T01:22:25;6.87;;;4.97;;
9675;SDS011;4876;42.656;23.292;2023-06-19T01:24:52;5.70;;;4.67;;
9675;SDS011;4876;42.656;23.292;2023-06-19T01:27:19;10.27;;;4.73;;
9675;SDS011;4876;42.656;23.292;2023-06-19T01:29:46;6.53;;;4.23;;
9675;SDS011;4876;42.656;23.292;2023-06-19T01:32:13;4.63;;;4.07;;
9675;SDS011;4876;42.656;23.292;2023-06-19T01:34:45;9.53;;;5.10;;
9675;SDS011;4876;42.656;23.292;2023-06-19T01:37:13;6.07;;;4.40;;
9675;SDS011;4876;42.656;23.292;2023-06-19T01:39:43;5.27;;;4.73;;
9675;SDS011;4876;42.656;23.292;2023-06-19T01:42:12;5.23;;;4.53;;
9675;SDS011;4876;42.656;23.292;2023-06-19T01:44:40;9.80;;;4.63;;
9675;SDS011;4876;42.656;23.292;2023-06-19T01:47:08;7.20;;;5.03;;
9675;SDS011;4876;42.656;23.292;2023-06-19T01:49:36;7.33;;;5.23;;
9675;SDS011;4876;42.656;23.292;2023-06-19T01:52:03;5.60;;;5.00;;
9675;SDS011;4876;42.656;23.292;2023-06-19T01:54:31;7.90;;;5.40;;
9675;SDS011;4876;42.656;23.292;2023-06-19T01:56:59;7.97;;;5.17;;
9675;SDS011;4876;42.656;23.292;2023-06-19T01:59:26;5.57;;;5.03;;
9675;SDS011;4876;42.656;23.292;2023-06-19T02:01:53;5.70;;;5.00;;
9675;SDS011;4876;42.656;23.292;2023-06-19T02:04:19;6.10;;;4.90;;
9675;SDS011;4876;42.656;23.292;2023-06-19T02:06:46;6.77;;;5.00;;
9675;SDS011;4876;42.656;23.292;2023-06-19T02:09:13;5.63;;;5.07;;
9675;SDS011;4876;42.656;23.292;2023-06-19T02:11:40;7.27;;;4.80;;
9675;SDS011;4876;42.656;23.292;2023-06-19T02:14:09;7.70;;;5.10;;
9675;SDS011;4876;42.656;23.292;2023-06-19T02:16:36;5.60;;;5.10;;
9675;SDS011;4876;42.656;23.292;2023-06-19T02:19:03;9.37;;;5.27;;
9675;SDS011;4876;42.656;23.292;2023-06-19T02:21:30;9.13;;;5.23;;
9675;SDS011;4876;42.656;23.292;2023-06-19T02:23:57;8.90;;;5.43;;
9675;SDS011;4876;42.656;23.292;2023-06-19T02:26:24;8.30;;;5.07;;
9675;SDS011;4876;42.656;23.292;2023-06-19T02:28:52;9.63;;;5.53;;
9675;SDS011;4876;42.656;23.292;2023-06-19T02:31:21;7.50;;;5.63;;
9675;SDS011;4876;42.656;23.292;2023-06-19T02:33:48;6.17;;;5.53;;
9675;SDS011;4876;42.656;23.292;2023-06-19T02:36:15;8.17;;;5.63;;
9675;SDS011;4876;42.656;23.292;2023-06-19T02:38:45;11.20;;;5.70;;
9675;SDS011;4876;42.656;23.292;2023-06-19T02:41:12;6.53;;;5.70;;
9675;SDS011;4876;42.656;23.292;2023-06-19T02:43:39;7.87;;;5.20;;
9675;SDS011;4876;42.656;23.292;2023-06-19T02:46:06;12.93;;;5.60;;
9675;SDS011;4876;42.656;23.292;2023-06-19T02:48:35;10.60;;;5.80;;
9675;SDS011;4876;42.656;23.292;2023-06-19T02:51:02;7.90;;;5.50;;
9675;SDS011;4876;42.656;23.292;2023-06-19T02:53:29;7.50;;;5.77;;
9675;SDS011;4876;42.656;23.292;2023-06-19T02:55:55;11.37;;;5.73;;
9675;SDS011;4876;42.656;23.292;2023-06-19T02:58:22;6.07;;;5.47;;
9675;SDS011;4876;42.656;23.292;2023-06-19T03:00:50;13.83;;;5.20;;
9675;SDS011;4876;42.656;23.292;2023-06-19T03:03:17;12.37;;;5.90;;
9675;SDS011;4876;42.656;23.292;2023-06-19T03:05:45;6.10;;;5.50;;
9675;SDS011;4876;42.656;23.292;2023-06-19T03:08:12;6.00;;;5.30;;
9675;SDS011;4876;42.656;23.292;2023-06-19T03:10:39;5.83;;;5.23;;
9675;SDS011;4876;42.656;23.292;2023-06-19T03:13:05;11.43;;;4.60;;
9675;SDS011;4876;42.656;23.292;2023-06-19T03:15:32;5.53;;;5.00;;
9675;SDS011;4876;42.656;23.292;2023-06-19T03:17:59;5.50;;;5.00;;
9675;SDS011;4876;42.656;23.292;2023-06-19T03:20:28;7.70;;;4.90;;
9675;SDS011;4876;42.656;23.292;2023-06-19T03:22:56;5.50;;;4.63;;
9675;SDS011;4876;42.656;23.292;2023-06-19T03:25:23;5.73;;;4.50;;
9675;SDS011;4876;42.656;23.292;2023-06-19T03:27:50;4.93;;;4.47;;
9675;SDS011;4876;42.656;23.292;2023-06-19T03:30:17;5.30;;;4.80;;
9675;SDS011;4876;42.656;23.292;2023-06-19T03:32:44;4.90;;;4.37;;
9675;SDS011;4876;42.656;23.292;2023-06-19T03:35:11;6.67;;;4.53;;
9675;SDS011;4876;42.656;23.292;2023-06-19T03:37:37;5.73;;;4.70;;
9675;SDS011;4876;42.656;23.292;2023-06-19T03:40:07;7.27;;;4.73;;
9675;SDS011;4876;42.656;23.292;2023-06-19T03:42:38;4.47;;;4.00;;
9675;SDS011;4876;42.656;23.292;2023-06-19T03:45:05;6.57;;;4.40;;
9675;SDS011;4876;42.656;23.292;2023-06-19T03:47:33;4.30;;;3.90;;
9675;SDS011;4876;42.656;23.292;2023-06-19T03:50:00;5.03;;;4.33;;
9675;SDS011;4876;42.656;23.292;2023-06-19T03:52:26;5.07;;;4.57;;
9675;SDS011;4876;42.656;23.292;2023-06-19T03:54:53;5.97;;;4.77;;
9675;SDS011;4876;42.656;23.292;2023-06-19T03:57:21;8.43;;;4.07;;
9675;SDS011;4876;42.656;23.292;2023-06-19T03:59:48;4.10;;;3.70;;
9675;SDS011;4876;42.656;23.292;2023-06-19T04:02:17;4.47;;;4.07;;
9675;SDS011;4876;42.656;23.292;2023-06-19T04:04:44;7.60;;;4.10;;
9675;SDS011;4876;42.656;23.292;2023-06-19T04:07:11;4.93;;;4.43;;
9675;SDS011;4876;42.656;23.292;2023-06-19T04:09:38;5.27;;;4.13;;
9675;SDS011;4876;42.656;23.292;2023-06-19T04:12:05;7.07;;;4.23;;
9675;SDS011;4876;42.656;23.292;2023-06-19T04:14:34;5.07;;;4.57;;
9675;SDS011;4876;42.656;23.292;2023-06-19T04:17:00;8.20;;;4.33;;
9675;SDS011;4876;42.656;23.292;2023-06-19T04:19:27;4.40;;;3.80;;
9675;SDS011;4876;42.656;23.292;2023-06-19T04:21:54;5.20;;;4.03;;
9675;SDS011;4876;42.656;23.292;2023-06-19T04:24:21;13.97;;;4.17;;
9675;SDS011;4876;42.656;23.292;2023-06-19T04:26:48;4.87;;;4.00;;
9675;SDS011;4876;42.656;23.292;2023-06-19T04:29:14;7.30;;;3.90;;
9675;SDS011;4876;42.656;23.292;2023-06-19T04:31:43;5.43;;;4.43;;
9675;SDS011;4876;42.656;23.292;2023-06-19T04:34:12;5.40;;;3.93;;
9675;SDS011;4876;42.656;23.292;2023-06-19T04:36:39;10.20;;;4.20;;
9675;SDS011;4876;42.656;23.292;2023-06-19T04:39:06;4.50;;;4.10;;
9675;SDS011;4876;42.656;23.292;2023-06-19T04:41:34;5.23;;;4.27;;
9675;SDS011;4876;42.656;23.292;2023-06-19T04:44:03;4.50;;;4.10;;
9675;SDS011;4876;42.656;23.292;2023-06-19T04:46:31;5.13;;;3.75;;
9675;SDS011;4876;42.656;23.292;2023-06-19T04:48:59;8.90;;;4.20;;
9675;SDS011;4876;42.656;23.292;2023-06-19T04:51:29;4.70;;;3.90;;
9675;SDS011;4876;42.656;23.292;2023-06-19T04:53:57;6.50;;;4.40;;
9675;SDS011;4876;42.656;23.292;2023-06-19T04:56:24;4.20;;;3.90;;
9675;SDS011;4876;42.656;23.292;2023-06-19T04:58:51;6.60;;;4.43;;
9675;SDS011;4876;42.656;23.292;2023-06-19T05:01:21;8.67;;;3.93;;
9675;SDS011;4876;42.656;23.292;2023-06-19T05:03:53;9.03;;;4.43;;
9675;SDS011;4876;42.656;23.292;2023-06-19T05:06:22;5.40;;;4.03;;
9675;SDS011;4876;42.656;23.292;2023-06-19T05:08:49;6.53;;;4.18;;
9675;SDS011;4876;42.656;23.292;2023-06-19T05:11:16;8.23;;;4.10;;
9675;SDS011;4876;42.656;23.292;2023-06-19T05:13:43;10.43;;;4.70;;
9675;SDS011;4876;42.656;23.292;2023-06-19T05:16:10;10.77;;;4.07;;
9675;SDS011;4876;42.656;23.292;2023-06-19T05:18:40;5.67;;;4.27;;
9675;SDS011;4876;42.656;23.292;2023-06-19T05:21:09;4.57;;;3.67;;
9675;SDS011;4876;42.656;23.292;2023-06-19T05:23:39;5.67;;;3.67;;
9675;SDS011;4876;42.656;23.292;2023-06-19T05:26:06;9.90;;;4.27;;
9675;SDS011;4876;42.656;23.292;2023-06-19T05:28:33;4.27;;;3.87;;
9675;SDS011;4876;42.656;23.292;2023-06-19T05:31:01;3.77;;;3.47;;
9675;SDS011;4876;42.656;23.292;2023-06-19T05:33:29;5.83;;;4.20;;
9675;SDS011;4876;42.656;23.292;2023-06-19T05:35:56;8.67;;;4.37;;
9675;SDS011;4876;42.656;23.292;2023-06-19T05:38:24;6.97;;;4.73;;
9675;SDS011;4876;42.656;23.292;2023-06-19T05:40:52;4.37;;;3.97;;
9675;SDS011;4876;42.656;23.292;2023-06-19T05:43:19;6.17;;;4.00;;
9675;SDS011;4876;42.656;23.292;2023-06-19T05:45:47;9.03;;;4.17;;
9675;SDS011;4876;42.656;23.292;2023-06-19T05:48:14;5.50;;;4.13;;
9675;SDS011;4876;42.656;23.292;2023-06-19T05:50:41;5.03;;;4.07;;
9675;SDS011;4876;42.656;23.292;2023-06-19T05:53:07;4.73;;;3.90;;
9675;SDS011;4876;42.656;23.292;2023-06-19T05:55:34;5.70;;;4.23;;
9675;SDS011;4876;42.656;23.292;2023-06-19T05:58:02;5.90;;;4.40;;
9675;SDS011;4876;42.656;23.292;2023-06-19T06:00:30;5.87;;;4.20;;
9675;SDS011;4876;42.656;23.292;2023-06-19T06:02:57;6.30;;;3.50;;
9675;SDS011;4876;42.656;23.292;2023-06-19T06:05:25;6.83;;;4.60;;
9675;SDS011;4876;42.656;23.292;2023-06-19T06:07:51;6.90;;;4.10;;
9675;SDS011;4876;42.656;23.292;2023-06-19T06:10:19;5.00;;;4.53;;
9675;SDS011;4876;42.656;23.292;2023-06-19T06:12:46;4.67;;;3.90;;
9675;SDS011;4876;42.656;23.292;2023-06-19T06:15:15;5.50;;;4.10;;
9675;SDS011;4876;42.656;23.292;2023-06-19T06:17:42;5.00;;;4.33;;
9675;SDS011;4876;42.656;23.292;2023-06-19T06:20:09;6.03;;;3.80;;
9675;SDS011;4876;42.656;23.292;2023-06-19T06:22:39;4.93;;;4.43;;
9675;SDS011;4876;42.656;23.292;2023-06-19T06:25:06;4.30;;;3.80;;
9675;SDS011;4876;42.656;23.292;2023-06-19T06:27:35;7.77;;;4.53;;
9675;SDS011;4876;42.656;23.292;2023-06-19T06:30:02;5.50;;;3.90;;
9675;SDS011;4876;42.656;23.292;2023-06-19T06:32:31;7.47;;;3.90;;
9675;SDS011;4876;42.656;23.292;2023-06-19T06:34:59;7.57;;;4.40;;
9675;SDS011;4876;42.656;23.292;2023-06-19T06:37:25;4.97;;;4.20;;
9675;SDS011;4876;42.656;23.292;2023-06-19T06:39:52;8.33;;;4.03;;
9675;SDS011;4876;42.656;23.292;2023-06-19T06:42:19;5.87;;;4.47;;
9675;SDS011;4876;42.656;23.292;2023-06-19T06:44:46;7.60;;;4.43;;
9675;SDS011;4876;42.656;23.292;2023-06-19T06:47:13;4.90;;;4.40;;
9675;SDS011;4876;42.656;23.292;2023-06-19T06:49:41;5.50;;;4.23;;
9675;SDS011;4876;42.656;23.292;2023-06-19T06:52:08;6.37;;;3.57;;
9675;SDS011;4876;42.656;23.292;2023-06-19T06:54:34;7.00;;;4.20;;
9675;SDS011;4876;42.656;23.292;2023-06-19T06:57:01;3.97;;;3.57;;
9675;SDS011;4876;42.656;23.292;2023-06-19T06:59:30;4.83;;;3.90;;
9675;SDS011;4876;42.656;23.292;2023-06-19T07:01:57;6.40;;;4.07;;
9675;SDS011;4876;42.656;23.292;2023-06-19T07:04:24;4.40;;;4.00;;
9675;SDS011;4876;42.656;23.292;2023-06-19T07:06:52;7.37;;;4.17;;
9675;SDS011;4876;42.656;23.292;2023-06-19T07:09:19;5.13;;;3.90;;
9675;SDS011;4876;42.656;23.292;2023-06-19T07:11:46;6.37;;;3.97;;
9675;SDS011;4876;42.656;23.292;2023-06-19T07:14:13;5.30;;;4.10;;
9675;SDS011;4876;42.656;23.292;2023-06-19T07:16:43;4.80;;;4.00;;
9675;SDS011;4876;42.656;23.292;2023-06-19T07:19:10;3.83;;;3.53;;
9675;SDS011;4876;42.656;23.292;2023-06-19T07:21:37;4.50;;;4.10;;
9675;SDS011;4876;42.656;23.292;2023-06-19T07:24:06;4.50;;;4.10;;
9675;SDS011;4876;42.656;23.292;2023-06-19T07:26:33;6.87;;;4.07;;
9675;SDS011;4876;42.656;23.292;2023-06-19T07:29:00;4.17;;;3.87;;
9675;SDS011;4876;42.656;23.292;2023-06-19T07:31:27;5.40;;;3.80;;
9675;SDS011;4876;42.656;23.292;2023-06-19T07:33:54;7.20;;;4.00;;
9675;SDS011;4876;42.656;23.292;2023-06-19T07:36:20;5.60;;;3.77;;
9675;SDS011;4876;42.656;23.292;2023-06-19T07:38:47;5.30;;;3.87;;
9675;SDS011;4876;42.656;23.292;2023-06-19T07:41:15;4.10;;;3.70;;
9675;SDS011;4876;42.656;23.292;2023-06-19T07:43:42;5.07;;;4.07;;
9675;SDS011;4876;42.656;23.292;2023-06-19T07:46:09;6.10;;;3.90;;
9675;SDS011;4876;42.656;23.292;2023-06-19T07:48:36;5.27;;;4.13;;
9675;SDS011;4876;42.656;23.292;2023-06-19T07:51:03;4.20;;;3.80;;
9675;SDS011;4876;42.656;23.292;2023-06-19T07:53:30;10.27;;;4.67;;
9675;SDS011;4876;42.656;23.292;2023-06-19T07:55:57;4.63;;;3.80;;
9675;SDS011;4876;42.656;23.292;2023-06-19T07:58:25;4.30;;;3.90;;
9675;SDS011;4876;42.656;23.292;2023-06-19T08:00:52;6.63;;;4.38;;
9675;SDS011;4876;42.656;23.292;2023-06-19T08:03:19;4.22;;;3.83;;
9675;SDS011;4876;42.656;23.292;2023-06-19T08:05:46;5.10;;;3.80;;
9675;SDS011;4876;42.656;23.292;2023-06-19T08:08:13;5.17;;;4.67;;
9675;SDS011;4876;42.656;23.292;2023-06-19T08:10:40;6.13;;;3.97;;
9675;SDS011;4876;42.656;23.292;2023-06-19T08:13:07;4.70;;;4.03;;
9675;SDS011;4876;42.656;23.292;2023-06-19T08:15:37;7.03;;;3.47;;
9675;SDS011;4876;42.656;23.292;2023-06-19T08:18:04;5.50;;;3.53;;
9675;SDS011;4876;42.656;23.292;2023-06-19T08:20:31;8.97;;;3.80;;
9675;SDS011;4876;42.656;23.292;2023-06-19T08:22:58;4.53;;;3.50;;
9675;SDS011;4876;42.656;23.292;2023-06-19T08:25:24;5.47;;;4.00;;
9675;SDS011;4876;42.656;23.292;2023-06-19T08:27:51;7.47;;;3.50;;
9675;SDS011;4876;42.656;23.292;2023-06-19T08:30:18;6.70;;;3.70;;
9675;SDS011;4876;42.656;23.292;2023-06-19T08:32:46;6.63;;;4.07;;
9675;SDS011;4876;42.656;23.292;2023-06-19T08:35:14;4.17;;;3.50;;
9675;SDS011;4876;42.656;23.292;2023-06-19T08:37:41;3.80;;;3.50;;
9675;SDS011;4876;42.656;23.292;2023-06-19T08:40:08;4.83;;;3.73;;
9675;SDS011;4876;42.656;23.292;2023-06-19T08:42:36;4.40;;;4.00;;
9675;SDS011;4876;42.656;23.292;2023-06-19T08:45:05;4.93;;;3.63;;
9675;SDS011;4876;42.656;23.292;2023-06-19T08:47:32;4.68;;;3.47;;
9675;SDS011;4876;42.656;23.292;2023-06-19T08:50:01;3.73;;;3.37;;
9675;SDS011;4876;42.656;23.292;2023-06-19T08:52:28;5.03;;;3.50;;
9675;SDS011;4876;42.656;23.292;2023-06-19T08:54:55;6.97;;;3.53;;
9675;SDS011;4876;42.656;23.292;2023-06-19T08:57:32;4.55;;;3.50;;
9675;SDS011;4876;42.656;23.292;2023-06-19T08:59:59;3.60;;;3.30;;
9675;SDS011;4876;42.656;23.292;2023-06-19T09:02:35;4.70;;;3.53;;
9675;SDS011;4876;42.656;23.292;2023-06-19T09:05:10;6.10;;;3.63;;
9675;SDS011;4876;42.656;23.292;2023-06-19T09:07:38;5.65;;;3.75;;
9675;SDS011;4876;42.656;23.292;2023-06-19T09:10:11;5.50;;;3.65;;
9675;SDS011;4876;42.656;23.292;2023-06-19T09:12:42;10.95;;;3.72;;
9675;SDS011;4876;42.656;23.292;2023-06-19T09:15:12;3.78;;;3.20;;
9675;SDS011;4876;42.656;23.292;2023-06-19T09:17:40;3.42;;;2.97;;
9675;SDS011;4876;42.656;23.292;2023-06-19T09:20:07;3.83;;;3.13;;
9675;SDS011;4876;42.656;23.292;2023-06-19T09:22:38;4.22;;;3.25;;
9675;SDS011;4876;42.656;23.292;2023-06-19T09:25:05;4.07;;;3.67;;
9675;SDS011;4876;42.656;23.292;2023-06-19T09:27:35;4.22;;;3.70;;
9675;SDS011;4876;42.656;23.292;2023-06-19T09:30:01;5.75;;;3.72;;
9675;SDS011;4876;42.656;23.292;2023-06-19T09:32:30;3.80;;;3.38;;
9675;SDS011;4876;42.656;23.292;2023-06-19T09:34:57;6.30;;;3.80;;
9675;SDS011;4876;42.656;23.292;2023-06-19T09:37:24;8.38;;;4.25;;
9675;SDS011;4876;42.656;23.292;2023-06-19T09:39:54;4.55;;;4.05;;
9675;SDS011;4876;42.656;23.292;2023-06-19T09:42:25;5.70;;;4.22;;
9675;SDS011;4876;42.656;23.292;2023-06-19T09:44:55;4.85;;;3.95;;
9675;SDS011;4876;42.656;23.292;2023-06-19T09:47:27;4.47;;;3.75;;
9675;SDS011;4876;42.656;23.292;2023-06-19T09:49:57;4.07;;;3.77;;
9675;SDS011;4876;42.656;23.292;2023-06-19T09:52:25;7.28;;;4.15;;
9675;SDS011;4876;42.656;23.292;2023-06-19T09:54:54;9.45;;;4.35;;
9675;SDS011;4876;42.656;23.292;2023-06-19T09:57:22;7.53;;;3.90;;
9675;SDS011;4876;42.656;23.292;2023-06-19T09:59:50;5.73;;;4.17;;
9675;SDS011;4876;42.656;23.292;2023-06-19T10:02:21;6.40;;;4.43;;
9675;SDS011;4876;42.656;23.292;2023-06-19T10:04:49;8.20;;;4.17;;
9675;SDS011;4876;42.656;23.292;2023-06-19T10:07:17;5.17;;;3.73;;
9675;SDS011;4876;42.656;23.292;2023-06-19T10:09:57;4.60;;;3.80;;
9675;SDS011;4876;42.656;23.292;2023-06-19T10:12:34;4.50;;;4.10;;
9675;SDS011;4876;42.656;23.292;2023-06-19T10:15:12;8.20;;;4.03;;
9675;SDS011;4876;42.656;23.292;2023-06-19T10:17:42;5.40;;;4.57;;
9675;SDS011;4876;42.656;23.292;2023-06-19T10:20:21;5.13;;;3.77;;
9675;SDS011;4876;42.656;23.292;2023-06-19T10:22:59;6.27;;;3.77;;
9675;SDS011;4876;42.656;23.292;2023-06-19T10:25:40;4.53;;;4.00;;
9675;SDS011;4876;42.656;23.292;2023-06-19T10:28:18;6.28;;;3.67;;
9675;SDS011;4876;42.656;23.292;2023-06-19T10:30:51;4.55;;;3.72;;
9675;SDS011;4876;42.656;23.292;2023-06-19T10:33:19;3.67;;;3.38;;
9675;SDS011;4876;42.656;23.292;2023-06-19T10:35:46;4.50;;;3.65;;
9675;SDS011;4876;42.656;23.292;2023-06-19T10:38:14;4.45;;;4.00;;
9675;SDS011;4876;42.656;23.292;2023-06-19T10:40:43;4.20;;;3.80;;
9675;SDS011;4876;42.656;23.292;2023-06-19T10:43:10;4.70;;;3.75;;
9675;SDS011;4876;42.656;23.292;2023-06-19T10:45:38;4.03;;;3.45;;
9675;SDS011;4876;42.656;23.292;2023-06-19T10:48:04;4.35;;;3.95;;
9675;SDS011;4876;42.656;23.292;2023-06-19T10:50:33;4.63;;;4.22;;
9675;SDS011;4876;42.656;23.292;2023-06-19T10:53:01;5.82;;;3.95;;
9675;SDS011;4876;42.656;23.292;2023-06-19T10:55:28;6.20;;;4.38;;
9675;SDS011;4876;42.656;23.292;2023-06-19T10:57:57;4.50;;;3.80;;
9675;SDS011;4876;42.656;23.292;2023-06-19T11:00:24;4.70;;;4.20;;
9675;SDS011;4876;42.656;23.292;2023-06-19T11:02:53;4.55;;;3.60;;
9675;SDS011;4876;42.656;23.292;2023-06-19T11:05:20;5.65;;;3.80;;
9675;SDS011;4876;42.656;23.292;2023-06-19T11:07:51;5.95;;;4.00;;
9675;SDS011;4876;42.656;23.292;2023-06-19T11:10:19;4.82;;;4.40;;
9675;SDS011;4876;42.656;23.292;2023-06-19T11:12:47;11.23;;;4.50;;
9675;SDS011;4876;42.656;23.292;2023-06-19T11:15:16;4.60;;;4.20;;
9675;SDS011;4876;42.656;23.292;2023-06-19T11:17:43;5.20;;;4.13;;
9675;SDS011;4876;42.656;23.292;2023-06-19T11:20:10;4.70;;;4.07;;
9675;SDS011;4876;42.656;23.292;2023-06-19T11:22:38;7.57;;;4.30;;
9675;SDS011;4876;42.656;23.292;2023-06-19T11:25:06;4.47;;;4.07;;
9675;SDS011;4876;42.656;23.292;2023-06-19T11:27:36;4.70;;;3.75;;
9675;SDS011;4876;42.656;23.292;2023-06-19T11:30:05;4.63;;;4.22;;
9675;SDS011;4876;42.656;23.292;2023-06-19T11:32:35;4.47;;;4.07;;
9675;SDS011;4876;42.656;23.292;2023-06-19T11:35:07;10.50;;;4.60;;
9675;SDS011;4876;42.656;23.292;2023-06-19T11:37:36;6.65;;;4.68;;
9675;SDS011;4876;42.656;23.292;2023-06-19T11:40:03;6.43;;;4.50;;
9675;SDS011;4876;42.656;23.292;2023-06-19T11:42:47;9.25;;;4.50;;
9675;SDS011;4876;42.656;23.292;2023-06-19T11:45:14;6.63;;;4.45;;
9675;SDS011;4876;42.656;23.292;2023-06-19T11:47:46;5.63;;;4.32;;
9675;SDS011;4876;42.656;23.292;2023-06-19T11:50:13;4.15;;;3.75;;
9675;SDS011;4876;42.656;23.292;2023-06-19T11:52:41;6.40;;;4.88;;
9675;SDS011;4876;42.656;23.292;2023-06-19T11:55:09;7.25;;;4.40;;
9675;SDS011;4876;42.656;23.292;2023-06-19T11:57:35;4.82;;;4.43;;
9675;SDS011;4876;42.656;23.292;2023-06-19T12:00:03;5.85;;;4.30;;
9675;SDS011;4876;42.656;23.292;2023-06-19T12:02:34;5.47;;;4.60;;
9675;SDS011;4876;42.656;23.292;2023-06-19T12:05:02;7.47;;;4.45;;
9675;SDS011;4876;42.656;23.292;2023-06-19T12:07:29;4.75;;;4.30;;
9675;SDS011;4876;42.656;23.292;2023-06-19T12:09:56;6.03;;;4.47;;
9675;SDS011;4876;42.656;23.292;2023-06-19T12:12:23;6.00;;;4.57;;
9675;SDS011;4876;42.656;23.292;2023-06-19T12:14:51;5.43;;;4.93;;
9675;SDS011;4876;42.656;23.292;2023-06-19T12:17:18;6.60;;;4.55;;
9675;SDS011;4876;42.656;23.292;2023-06-19T12:19:44;7.03;;;4.65;;
9675;SDS011;4876;42.656;23.292;2023-06-19T12:22:12;11.55;;;4.53;;
9675;SDS011;4876;42.656;23.292;2023-06-19T12:24:39;6.60;;;4.38;;
9675;SDS011;4876;42.656;23.292;2023-06-19T12:27:06;15.00;;;4.40;;
9675;SDS011;4876;42.656;23.292;2023-06-19T12:29:33;4.97;;;4.15;;
9675;SDS011;4876;42.656;23.292;2023-06-19T12:32:00;4.90;;;4.38;;
9675;SDS011;4876;42.656;23.292;2023-06-19T12:34:28;4.72;;;4.32;;
9675;SDS011;4876;42.656;23.292;2023-06-19T12:36:55;8.98;;;4.40;;
9675;SDS011;4876;42.656;23.292;2023-06-19T12:39:24;8.70;;;4.72;;
9675;SDS011;4876;42.656;23.292;2023-06-19T12:41:51;8.40;;;4.68;;
9675;SDS011;4876;42.656;23.292;2023-06-19T12:44:19;6.75;;;4.57;;
9675;SDS011;4876;42.656;23.292;2023-06-19T12:46:47;7.30;;;4.57;;
9675;SDS011;4876;42.656;23.292;2023-06-19T12:49:14;8.02;;;4.25;;
9675;SDS011;4876;42.656;23.292;2023-06-19T12:51:41;4.80;;;4.30;;
9675;SDS011;4876;42.656;23.292;2023-06-19T12:54:08;5.40;;;4.78;;
9675;SDS011;4876;42.656;23.292;2023-06-19T12:56:36;9.52;;;4.55;;
9675;SDS011;4876;42.656;23.292;2023-06-19T12:59:03;5.57;;;4.47;;
9675;SDS011;4876;42.656;23.292;2023-06-19T13:01:29;4.93;;;4.47;;
9675;SDS011;4876;42.656;23.292;2023-06-19T13:03:56;6.47;;;4.30;;
9675;SDS011;4876;42.656;23.292;2023-06-19T13:06:23;7.45;;;4.10;;
9675;SDS011;4876;42.656;23.292;2023-06-19T13:08:50;7.10;;;4.40;;
9675;SDS011;4876;42.656;23.292;2023-06-19T13:11:16;8.63;;;4.45;;
9675;SDS011;4876;42.656;23.292;2023-06-19T13:13:45;7.80;;;4.05;;
9675;SDS011;4876;42.656;23.292;2023-06-19T13:16:11;4.50;;;4.00;;
9675;SDS011;4876;42.656;23.292;2023-06-19T13:18:38;6.45;;;4.30;;
9675;SDS011;4876;42.656;23.292;2023-06-19T13:21:05;6.47;;;4.13;;
9675;SDS011;4876;42.656;23.292;2023-06-19T13:23:32;8.65;;;4.60;;
9675;SDS011;4876;42.656;23.292;2023-06-19T13:25:59;4.47;;;4.07;;
9675;SDS011;4876;42.656;23.292;2023-06-19T13:28:27;4.55;;;4.07;;
9675;SDS011;4876;42.656;23.292;2023-06-19T13:30:55;5.80;;;4.35;;
9675;SDS011;4876;42.656;23.292;2023-06-19T13:33:22;4.72;;;3.75;;
9675;SDS011;4876;42.656;23.292;2023-06-19T13:35:49;7.00;;;3.85;;
9675;SDS011;4876;42.656;23.292;2023-06-19T13:38:16;5.07;;;4.00;;
9675;SDS011;4876;42.656;23.292;2023-06-19T13:40:43;7.35;;;4.20;;
9675;SDS011;4876;42.656;23.292;2023-06-19T13:43:09;4.32;;;3.92;;
9675;SDS011;4876;42.656;23.292;2023-06-19T13:45:36;4.60;;;4.20;;
9675;SDS011;4876;42.656;23.292;2023-06-19T13:48:05;5.60;;;3.88;;
9675;SDS011;4876;42.656;23.292;2023-06-19T13:50:32;4.88;;;4.20;;
9675;SDS011;4876;42.656;23.292;2023-06-19T13:52:59;9.23;;;4.30;;
9675;SDS011;4876;42.656;23.292;2023-06-19T13:55:27;8.75;;;4.35;;
9675;SDS011;4876;42.656;23.292;2023-06-19T13:57:54;4.70;;;4.28;;
9675;SDS011;4876;42.656;23.292;2023-06-19T14:00:21;4.40;;;4.00;;
9675;SDS011;4876;42.656;23.292;2023-06-19T14:02:47;4.07;;;3.70;;
9675;SDS011;4876;42.656;23.292;2023-06-19T14:05:17;4.30;;;3.88;;
9675;SDS011;4876;42.656;23.292;2023-06-19T14:07:43;4.55;;;4.07;;
9675;SDS011;4876;42.656;23.292;2023-06-19T14:10:10;5.13;;;4.47;;
9675;SDS011;4876;42.656;23.292;2023-06-19T14:12:37;5.35;;;4.32;;
9675;SDS011;4876;42.656;23.292;2023-06-19T14:15:05;4.53;;;4.13;;
9675;SDS011;4876;42.656;23.292;2023-06-19T14:17:33;4.97;;;4.28;;
9675;SDS011;4876;42.656;23.292;2023-06-19T14:20:00;6.82;;;4.20;;
9675;SDS011;4876;42.656;23.292;2023-06-19T14:22:28;9.65;;;4.15;;
9675;SDS011;4876;42.656;23.292;2023-06-19T14:24:55;10.02;;;4.25;;
9675;SDS011;4876;42.656;23.292;2023-06-19T14:27:24;6.97;;;4.35;;
9675;SDS011;4876;42.656;23.292;2023-06-19T14:29:51;8.38;;;4.10;;
9675;SDS011;4876;42.656;23.292;2023-06-19T14:32:19;4.95;;;3.83;;
9675;SDS011;4876;42.656;23.292;2023-06-19T14:34:46;4.60;;;4.20;;
9675;SDS011;4876;42.656;23.292;2023-06-19T14:37:13;4.35;;;3.95;;
9675;SDS011;4876;42.656;23.292;2023-06-19T14:39:41;5.72;;;4.35;;
9675;SDS011;4876;42.656;23.292;2023-06-19T14:42:08;5.28;;;4.22;;
9675;SDS011;4876;42.656;23.292;2023-06-19T14:44:35;7.85;;;3.85;;
9675;SDS011;4876;42.656;23.292;2023-06-19T14:47:02;5.13;;;4.32;;
9675;SDS011;4876;42.656;23.292;2023-06-19T14:49:29;9.15;;;4.43;;
9675;SDS011;4876;42.656;23.292;2023-06-19T14:51:56;4.13;;;3.72;;
9675;SDS011;4876;42.656;23.292;2023-06-19T14:54:23;5.70;;;4.55;;
9675;SDS011;4876;42.656;23.292;2023-06-19T14:56:51;7.95;;;4.60;;
9675;SDS011;4876;42.656;23.292;2023-06-19T14:59:18;4.75;;;4.30;;
9675;SDS011;4876;42.656;23.292;2023-06-19T15:01:45;5.95;;;3.97;;
9675;SDS011;4876;42.656;23.292;2023-06-19T15:04:12;7.30;;;5.10;;